Wahpeton, Iowa
Current Conditions -  °F | °C
As of 12:33 AM on Saturday 29 Nov 2014 (Local Time) from KMJQ Reporting Station
Clear Clear  
Wind Chill: -9°   Ceiling: Unl
Heat Index: -5°   Visibility: 7mi
Dew Point: -6°   Wind: 6mph
Humidity: 93%   Direction: 140°SE
Pressure: 29.57"   Gusts: NA
Location:  43.4265°N, 95.1547°W
Report Text: KMJQ 290633Z AUTO 14005KT 7SM CLR M05/M06 A2957 RMK AO2
Loading
Personal Weather Stations






























Interactive Weather Map New forecast layout! Learn more

10-Day Weather Forecast

Advertisements
Track Severe Weather on mobile